Time;durP1;ratioP1;P1;durP2;ratioP2;P2;SDS_P1;SDS_P2;PMS_P1;PMS_P2;Temp;Humidity;BMP_temperature;BMP_pressure;BME280_temperature;BME280_humidity;BME280_pressure;Samples;Min_cycle;Max_cycle;Signal;HPM_P1;HPM_P2
2022/03/17 00:00:37;;;;;;;;;;;7.30;99.90;;;;;;4886433;29;20315;-87
2022/03/17 00:03:05;;;;;;;;;;;8.20;99.90;;;;;;4851443;29;19928;-87
2022/03/17 00:05:33;;;;;;;;;;;7.30;99.90;;;;;;4892764;29;19939;-87
2022/03/17 00:08:01;;;;;;;;;;;7.30;99.90;;;;;;4843552;29;19928;-88
2022/03/17 00:10:31;;;;;;;;;;;7.30;99.90;;;;;;4892771;29;19934;-87
2022/03/17 00:12:58;;;;;;;;;;;7.10;99.90;;;;;;4870306;29;19936;-87
2022/03/17 00:15:27;;;;;;;;;;;7.20;99.90;;;;;;4853491;29;19927;-88
2022/03/17 00:17:57;;;;;;;;;;;7.20;99.90;;;;;;4884307;29;19935;-87
2022/03/17 00:20:26;;;;;;;;;;;7.20;99.90;;;;;;4861660;29;19928;-89
2022/03/17 00:22:54;;;;;;;;;;;7.10;99.90;;;;;;4872359;29;19935;-90
2022/03/17 00:25:25;;;;;;;;;;;7.20;99.90;;;;;;4870681;29;19931;-89
2022/03/17 00:27:59;;;;;;;;;;;7.10;99.90;;;;;;4864533;29;19928;-88
2022/03/17 00:30:27;;;;;;;;;;;7.10;99.90;;;;;;4883744;29;20308;-88
2022/03/17 00:32:55;;;;;;;;;;;7.10;99.90;;;;;;4884594;29;19954;-90
2022/03/17 00:35:35;;;;;;;;;;;7.10;99.90;;;;;;4881728;29;20712;-87
2022/03/17 00:38:03;;;;;;;;;;;7.10;99.90;;;;;;4881580;29;19932;-89
2022/03/17 00:40:31;;;;;;;;;;;7.20;99.90;;;;;;4866016;29;19939;-87
2022/03/17 00:43:01;;;;;;;;;;;7.10;99.90;;;;;;4872972;29;20438;-87
2022/03/17 00:45:28;;;;;;;;;;;7.10;99.90;;;;;;4881526;29;19928;-88
2022/03/17 00:47:56;;;;;;;;;;;7.10;99.90;;;;;;4881180;29;20376;-88
2022/03/17 00:50:24;;;;;;;;;;;7.10;99.90;;;;;;4865718;29;19932;-88
2022/03/17 00:52:52;;;;;;;;;;;7.10;99.90;;;;;;4868411;29;19928;-87
2022/03/17 00:55:23;;;;;;;;;;;7.00;99.90;;;;;;4850855;29;20387;-87
2022/03/17 00:57:51;;;;;;;;;;;7.00;99.90;;;;;;4866195;29;19928;-86
2022/03/17 01:00:20;;;;;;;;;;;6.90;99.90;;;;;;4882791;29;19932;-88
2022/03/17 01:02:50;;;;;;;;;;;6.90;99.90;;;;;;4863322;29;19928;-91
2022/03/17 01:05:20;;;;;;;;;;;6.80;99.90;;;;;;4861754;29;20286;-88
2022/03/17 01:07:53;;;;;;;;;;;6.70;99.90;;;;;;4853358;29;19936;-90
2022/03/17 01:10:21;;;;;;;;;;;6.70;99.90;;;;;;4859811;29;19948;-88
2022/03/17 01:12:50;;;;;;;;;;;6.70;99.90;;;;;;4874725;29;19938;-88
2022/03/17 01:15:21;;;;;;;;;;;6.60;99.90;;;;;;4877867;29;19927;-87
2022/03/17 01:17:49;;;;;;;;;;;6.00;99.90;;;;;;4846656;29;19928;-87
2022/03/17 01:20:17;;;;;;;;;;;6.60;99.90;;;;;;4875206;29;20163;-87
2022/03/17 01:22:45;;;;;;;;;;;6.60;99.90;;;;;;4873175;29;19931;-88
2022/03/17 01:25:13;;;;;;;;;;;6.60;99.90;;;;;;4874405;29;19932;-87
2022/03/17 01:27:40;;;;;;;;;;;6.60;99.90;;;;;;4841733;29;20299;-88
2022/03/17 01:30:09;;;;;;;;;;;6.50;99.90;;;;;;4858964;29;19943;-88
2022/03/17 01:32:40;;;;;;;;;;;6.60;99.90;;;;;;4876559;29;19932;-86
2022/03/17 01:35:09;;;;;;;;;;;6.60;99.90;;;;;;4860613;29;19928;-88
2022/03/17 01:37:36;;;;;;;;;;;6.60;99.90;;;;;;4876710;29;19944;-87
2022/03/17 01:40:04;;;;;;;;;;;6.70;99.90;;;;;;4875516;29;20340;-87
2022/03/17 01:42:32;;;;;;;;;;;6.70;99.90;;;;;;4853730;29;20426;-86
2022/03/17 01:44:59;;;;;;;;;;;6.70;99.90;;;;;;4875075;29;19931;-88
2022/03/17 01:47:27;;;;;;;;;;;6.80;99.90;;;;;;4863021;29;19939;-87
2022/03/17 01:49:56;;;;;;;;;;;6.80;99.90;;;;;;4875538;29;19942;-88
2022/03/17 01:52:23;;;;;;;;;;;6.90;99.90;;;;;;4860484;29;19927;-87
2022/03/17 01:54:53;;;;;;;;;;;6.90;99.90;;;;;;4868722;29;19928;-89
2022/03/17 01:57:21;;;;;;;;;;;6.80;99.90;;;;;;4877353;29;19928;-87
2022/03/17 01:59:49;;;;;;;;;;;6.90;99.90;;;;;;4870104;29;19928;-88
2022/03/17 02:02:17;;;;;;;;;;;6.90;99.90;;;;;;4879411;29;19932;-89
2022/03/17 02:04:47;;;;;;;;;;;6.80;99.90;;;;;;4857300;29;20346;-88
2022/03/17 02:07:20;;;;;;;;;;;6.80;99.90;;;;;;4874678;29;19934;-88
2022/03/17 02:09:50;;;;;;;;;;;6.70;99.90;;;;;;4888258;29;19932;-89
2022/03/17 02:15:12;;;;;;;;;;;6.60;99.90;;;;;;4877179;29;19932;-88
2022/03/17 02:17:40;;;;;;;;;;;6.60;99.90;;;;;;4877812;29;19928;-87
2022/03/17 02:20:09;;;;;;;;;;;6.60;99.90;;;;;;4862718;29;19932;-89
2022/03/17 02:22:39;;;;;;;;;;;6.60;99.90;;;;;;4868403;29;19932;-88
2022/03/17 02:27:53;;;;;;;;;;;6.50;99.90;;;;;;4877700;29;19916;-88
2022/03/17 02:30:22;;;;;;;;;;;6.30;99.90;;;;;;4893883;29;19932;-88
2022/03/17 02:32:59;;;;;;;;;;;6.30;99.90;;;;;;4891326;29;19928;-87
2022/03/17 02:35:26;;;;;;;;;;;6.30;99.90;;;;;;4889960;29;19938;-88
2022/03/17 02:37:55;;;;;;;;;;;6.20;99.90;;;;;;4875012;29;19928;-89
2022/03/17 02:40:24;;;;;;;;;;;6.10;99.90;;;;;;4889613;29;19934;-88
2022/03/17 02:42:52;;;;;;;;;;;6.10;99.90;;;;;;4884726;29;19928;-84
2022/03/17 02:45:21;;;;;;;;;;;6.00;99.90;;;;;;4882296;29;19931;-88
2022/03/17 02:47:50;;;;;;;;;;;5.90;99.90;;;;;;4881006;29;19935;-89
2022/03/17 02:50:18;;;;;;;;;;;5.90;99.90;;;;;;4869330;29;20390;-89
2022/03/17 02:52:45;;;;;;;;;;;5.80;99.90;;;;;;4885466;29;20296;-91
2022/03/17 02:55:14;;;;;;;;;;;5.80;99.90;;;;;;4867393;29;19932;-88
2022/03/17 02:57:43;;;;;;;;;;;5.70;99.90;;;;;;4884196;29;19927;-88
2022/03/17 03:00:11;;;;;;;;;;;5.90;99.90;;;;;;4868297;29;20287;-87
2022/03/17 03:02:39;;;;;;;;;;;5.70;99.90;;;;;;4877154;29;20298;-88
2022/03/17 03:05:08;;;;;;;;;;;5.60;99.90;;;;;;4888584;29;19927;-87
2022/03/17 03:07:37;;;;;;;;;;;5.60;99.90;;;;;;4878463;29;19931;-88
2022/03/17 03:10:05;;;;;;;;;;;5.60;99.90;;;;;;4861663;29;20430;-88
2022/03/17 03:12:33;;;;;;;;;;;5.50;99.90;;;;;;4886174;29;20387;-89
2022/03/17 03:15:01;;;;;;;;;;;5.50;99.90;;;;;;4878059;29;20036;-88
2022/03/17 03:17:29;;;;;;;;;;;5.50;99.90;;;;;;4881991;29;19927;-88
2022/03/17 03:19:57;;;;;;;;;;;5.40;99.90;;;;;;4884838;29;19928;-87
2022/03/17 03:22:29;;;;;;;;;;;5.40;99.90;;;;;;4879915;29;19951;-88
2022/03/17 03:24:59;;;;;;;;;;;5.30;99.90;;;;;;4880096;29;20355;-88
2022/03/17 03:27:27;;;;;;;;;;;5.30;99.90;;;;;;4862874;29;19928;-86
2022/03/17 03:29:55;;;;;;;;;;;5.30;99.90;;;;;;4863533;29;19928;-88
2022/03/17 03:32:23;;;;;;;;;;;5.20;99.90;;;;;;4862861;29;20311;-88
2022/03/17 03:34:51;;;;;;;;;;;5.20;99.90;;;;;;4863885;29;19935;-87
2022/03/17 03:37:25;;;;;;;;;;;5.20;99.90;;;;;;4862966;29;19939;-89
2022/03/17 03:39:54;;;;;;;;;;;5.10;99.90;;;;;;4878217;29;19932;-86
2022/03/17 03:42:21;;;;;;;;;;;5.10;99.90;;;;;;4879141;29;19928;-87
2022/03/17 03:44:49;;;;;;;;;;;5.10;99.90;;;;;;4879090;29;19928;-88
2022/03/17 03:47:17;;;;;;;;;;;5.10;99.90;;;;;;4886665;29;19927;-87
2022/03/17 03:49:44;;;;;;;;;;;4.20;99.90;;;;;;4879668;29;19928;-87
2022/03/17 03:52:13;;;;;;;;;;;5.00;99.90;;;;;;4886486;29;20675;-87
2022/03/17 03:54:41;;;;;;;;;;;5.00;99.90;;;;;;4876661;29;19928;-86
2022/03/17 03:57:08;;;;;;;;;;;4.70;99.90;;;;;;4878848;29;19932;-87
2022/03/17 03:59:36;;;;;;;;;;;4.90;99.90;;;;;;4877205;29;20419;-87
2022/03/17 04:02:05;;;;;;;;;;;4.70;99.90;;;;;;4877896;29;19928;-86
2022/03/17 04:04:36;;;;;;;;;;;4.90;99.90;;;;;;4879686;29;19931;-87
2022/03/17 04:07:04;;;;;;;;;;;4.90;99.90;;;;;;4878450;29;19927;-88
2022/03/17 04:09:34;;;;;;;;;;;5.70;99.90;;;;;;4861944;29;19935;-88
2022/03/17 04:12:02;;;;;;;;;;;4.80;99.90;;;;;;4881701;29;19928;-88
2022/03/17 04:14:30;;;;;;;;;;;4.80;99.90;;;;;;4879412;29;19936;-87
2022/03/17 04:16:59;;;;;;;;;;;4.70;99.90;;;;;;4879105;29;19931;-87
2022/03/17 04:19:27;;;;;;;;;;;4.70;99.90;;;;;;4862138;29;19935;-88
2022/03/17 04:21:54;;;;;;;;;;;4.60;99.90;;;;;;4879221;29;19960;-87
2022/03/17 04:24:22;;;;;;;;;;;4.60;99.90;;;;;;4876170;29;19927;-87
2022/03/17 04:26:50;;;;;;;;;;;4.50;99.90;;;;;;4869719;29;19935;-87
2022/03/17 04:29:18;;;;;;;;;;;4.50;99.90;;;;;;4878802;29;19931;-87
2022/03/17 04:31:45;;;;;;;;;;;5.50;99.90;;;;;;4876737;29;20519;-88
2022/03/17 04:34:13;;;;;;;;;;;4.40;99.90;;;;;;4862220;29;19938;-86
2022/03/17 04:36:41;;;;;;;;;;;4.40;99.90;;;;;;4879665;29;20398;-86
2022/03/17 04:39:11;;;;;;;;;;;4.40;99.90;;;;;;4883333;29;19935;-86
2022/03/17 04:41:39;;;;;;;;;;;4.30;99.90;;;;;;4869402;29;19939;-88
2022/03/17 04:44:13;;;;;;;;;;;4.30;99.90;;;;;;4876634;29;19928;-89
2022/03/17 04:46:46;;;;;;;;;;;4.30;99.90;;;;;;4878248;29;19932;-87
2022/03/17 04:49:13;;;;;;;;;;;4.40;99.90;;;;;;4861349;29;19932;-87
2022/03/17 04:51:41;;;;;;;;;;;4.20;99.90;;;;;;4875680;29;19939;-86
2022/03/17 04:54:08;;;;;;;;;;;4.20;99.90;;;;;;4881007;29;19935;-86
2022/03/17 04:56:36;;;;;;;;;;;4.20;99.90;;;;;;4869225;29;19928;-87
2022/03/17 04:59:03;;;;;;;;;;;4.20;99.90;;;;;;4859137;29;20372;-86
2022/03/17 05:01:30;;;;;;;;;;;4.20;99.90;;;;;;4876679;29;19939;-87
2022/03/17 05:03:58;;;;;;;;;;;4.10;99.90;;;;;;4884134;29;19931;-86
2022/03/17 05:06:26;;;;;;;;;;;4.40;99.90;;;;;;4860060;29;20404;-86
2022/03/17 05:08:53;;;;;;;;;;;4.20;99.90;;;;;;4860153;29;20021;-87
2022/03/17 05:11:21;;;;;;;;;;;4.10;99.90;;;;;;4878468;29;19935;-87
2022/03/17 05:13:48;;;;;;;;;;;4.10;99.90;;;;;;4860619;29;19939;-87
2022/03/17 05:16:16;;;;;;;;;;;4.10;99.90;;;;;;4878596;29;20402;-87
2022/03/17 05:18:47;;;;;;;;;;;4.10;99.90;;;;;;4877723;29;19935;-88
2022/03/17 05:21:15;;;;;;;;;;;3.70;99.90;;;;;;4867208;29;19948;-87
2022/03/17 05:23:43;;;;;;;;;;;4.00;99.90;;;;;;4859360;29;20819;-86
2022/03/17 05:26:10;;;;;;;;;;;4.10;99.90;;;;;;4877778;29;19935;-86
2022/03/17 05:28:38;;;;;;;;;;;4.00;99.90;;;;;;4878053;29;19927;-87
2022/03/17 05:31:07;;;;;;;;;;;3.80;99.90;;;;;;4878493;29;19927;-87
2022/03/17 05:33:35;;;;;;;;;;;4.00;99.90;;;;;;4878150;29;19928;-88
2022/03/17 05:36:05;;;;;;;;;;;4.00;99.90;;;;;;4884216;29;19950;-88
2022/03/17 05:38:33;;;;;;;;;;;3.40;99.90;;;;;;4877005;29;19940;-87
2022/03/17 05:41:00;;;;;;;;;;;4.00;99.90;;;;;;4877852;29;19947;-86
2022/03/17 05:43:28;;;;;;;;;;;3.90;99.90;;;;;;4888032;29;19939;-86
2022/03/17 05:45:55;;;;;;;;;;;3.90;99.90;;;;;;4888105;29;19927;-85
2022/03/17 05:48:23;;;;;;;;;;;4.40;99.90;;;;;;4863738;29;19951;-86
2022/03/17 05:50:52;;;;;;;;;;;3.90;99.90;;;;;;4865488;29;19932;-86
2022/03/17 05:53:19;;;;;;;;;;;3.90;99.90;;;;;;4871921;29;19940;-87
2022/03/17 05:55:48;;;;;;;;;;;4.40;99.90;;;;;;4866784;29;19935;-87
2022/03/17 05:58:15;;;;;;;;;;;3.90;99.90;;;;;;4870420;29;20304;-84
2022/03/17 06:00:43;;;;;;;;;;;3.70;99.90;;;;;;4883649;29;19939;-86
2022/03/17 06:03:11;;;;;;;;;;;3.80;99.90;;;;;;4866593;29;19928;-86
2022/03/17 06:05:38;;;;;;;;;;;4.60;99.90;;;;;;4863458;29;20402;-86
2022/03/17 06:08:09;;;;;;;;;;;3.80;99.90;;;;;;4882188;29;20403;-87
2022/03/17 06:10:40;;;;;;;;;;;3.80;99.90;;;;;;4872227;29;19935;-85
2022/03/17 06:13:08;;;;;;;;;;;3.60;99.90;;;;;;4881688;29;20370;-87
2022/03/17 06:15:36;;;;;;;;;;;3.80;99.90;;;;;;4878396;29;19927;-86
2022/03/17 06:18:04;;;;;;;;;;;3.80;99.90;;;;;;4881672;29;19939;-86
2022/03/17 06:20:34;;;;;;;;;;;3.80;99.90;;;;;;4862191;29;19932;-87
2022/03/17 06:23:02;;;;;;;;;;;3.80;99.90;;;;;;4872508;29;19935;-87
2022/03/17 06:25:31;;;;;;;;;;;3.80;99.90;;;;;;4865430;29;20300;-87
2022/03/17 06:28:09;;;;;;;;;;;3.80;99.90;;;;;;4867032;29;19928;-86
2022/03/17 06:30:38;;;;;;;;;;;3.80;99.90;;;;;;4862986;29;19932;-88
2022/03/17 06:33:08;;;;;;;;;;;3.80;99.90;;;;;;4873809;29;19928;-84
2022/03/17 06:35:36;;;;;;;;;;;3.80;99.90;;;;;;4888287;29;19928;-86
2022/03/17 06:38:08;;;;;;;;;;;3.80;99.90;;;;;;4891626;29;19948;-86
2022/03/17 06:40:37;;;;;;;;;;;3.80;99.90;;;;;;4870214;29;19928;-86
2022/03/17 06:43:05;;;;;;;;;;;3.90;99.90;;;;;;4870374;29;19928;-87
2022/03/17 06:45:33;;;;;;;;;;;3.90;99.90;;;;;;4869314;29;19939;-87
2022/03/17 06:48:01;;;;;;;;;;;3.90;99.90;;;;;;4872336;29;19935;-86
2022/03/17 06:50:30;;;;;;;;;;;3.90;99.90;;;;;;4871287;29;19958;-87
2022/03/17 06:52:57;;;;;;;;;;;4.10;99.90;;;;;;4886702;29;19934;-87
2022/03/17 06:55:25;;;;;;;;;;;4.00;99.90;;;;;;4888540;29;19940;-86
2022/03/17 06:57:53;;;;;;;;;;;4.00;99.90;;;;;;4886856;29;19932;-87
2022/03/17 07:00:21;;;;;;;;;;;4.00;99.90;;;;;;4868448;29;19932;-89
2022/03/17 07:02:48;;;;;;;;;;;4.00;99.90;;;;;;4870983;29;19948;-89
2022/03/17 07:05:17;;;;;;;;;;;4.10;99.90;;;;;;4866182;29;19936;-87
2022/03/17 07:07:45;;;;;;;;;;;4.10;99.90;;;;;;4873762;29;19932;-86
2022/03/17 07:10:15;;;;;;;;;;;4.20;99.90;;;;;;4891389;29;19986;-87
2022/03/17 07:12:47;;;;;;;;;;;4.10;99.90;;;;;;4877693;29;19932;-87
2022/03/17 07:15:14;;;;;;;;;;;4.20;99.90;;;;;;4884658;29;19935;-87
2022/03/17 07:17:43;;;;;;;;;;;4.30;99.90;;;;;;4885808;29;19932;-88
2022/03/17 07:20:15;;;;;;;;;;;4.30;99.90;;;;;;4871784;29;19931;-86
2022/03/17 07:22:46;;;;;;;;;;;4.40;99.90;;;;;;4870038;29;19936;-85
2022/03/17 07:25:17;;;;;;;;;;;4.40;99.90;;;;;;4887765;29;19951;-88
2022/03/17 07:27:46;;;;;;;;;;;4.40;99.90;;;;;;4857185;29;19942;-85
2022/03/17 07:30:18;;;;;;;;;;;4.50;99.90;;;;;;4884129;29;19943;-85
2022/03/17 07:32:52;;;;;;;;;;;4.50;99.90;;;;;;4883878;29;20374;-88
2022/03/17 07:35:27;;;;;;;;;;;4.60;99.90;;;;;;4871653;29;19927;-90
2022/03/17 07:37:58;;;;;;;;;;;4.60;99.90;;;;;;4885909;29;19928;-85
2022/03/17 07:40:26;;;;;;;;;;;4.90;99.90;;;;;;4883458;29;20277;-85
2022/03/17 07:42:53;;;;;;;;;;;4.80;99.90;;;;;;4884294;29;19935;-85
2022/03/17 07:45:39;;;;;;;;;;;4.80;99.90;;;;;;4873048;29;19954;-85
2022/03/17 07:48:46;;;;;;;;;;;4.90;99.90;;;;;;4862213;29;19935;-84
2022/03/17 07:51:23;;;;;;;;;;;4.80;99.90;;;;;;4860796;29;19939;-85
2022/03/17 07:53:51;;;;;;;;;;;5.10;99.90;;;;;;4849855;29;20582;-84
2022/03/17 07:56:20;;;;;;;;;;;5.10;99.90;;;;;;4851631;29;19927;-85
2022/03/17 07:58:48;;;;;;;;;;;5.20;99.90;;;;;;4879908;29;19928;-85
2022/03/17 08:01:17;;;;;;;;;;;5.30;99.90;;;;;;4877325;29;19939;-85
2022/03/17 08:03:45;;;;;;;;;;;5.40;99.90;;;;;;4853916;29;19932;-85
2022/03/17 08:06:14;;;;;;;;;;;5.50;99.90;;;;;;4867677;29;19943;-86
2022/03/17 08:08:43;;;;;;;;;;;5.60;99.90;;;;;;4868141;29;19935;-87
2022/03/17 08:11:12;;;;;;;;;;;5.60;99.90;;;;;;4868241;29;19943;-86
2022/03/17 08:13:41;;;;;;;;;;;5.30;99.90;;;;;;4883670;29;19932;-86
2022/03/17 08:16:10;;;;;;;;;;;5.80;99.90;;;;;;4881755;29;19938;-88
2022/03/17 08:18:49;;;;;;;;;;;5.90;99.90;;;;;;4882857;29;19928;-86
2022/03/17 08:21:27;;;;;;;;;;;5.90;99.90;;;;;;4886246;29;19927;-87
2022/03/17 08:23:55;;;;;;;;;;;6.10;99.90;;;;;;4888278;29;19928;-85
2022/03/17 08:26:26;;;;;;;;;;;6.10;99.90;;;;;;4887305;29;19950;-86
2022/03/17 08:28:53;;;;;;;;;;;6.20;99.90;;;;;;4884213;29;19932;-85
2022/03/17 08:31:23;;;;;;;;;;;6.30;99.90;;;;;;4875513;29;19931;-87
2022/03/17 08:33:51;;;;;;;;;;;6.40;99.90;;;;;;4879713;29;19948;-85
2022/03/17 08:36:19;;;;;;;;;;;6.40;99.90;;;;;;4879953;29;20222;-86
2022/03/17 08:38:53;;;;;;;;;;;6.50;99.90;;;;;;4879739;29;19928;-87
2022/03/17 08:41:21;;;;;;;;;;;6.60;99.90;;;;;;4861670;29;20525;-85
2022/03/17 08:43:49;;;;;;;;;;;6.70;99.90;;;;;;4861771;29;19935;-86
2022/03/17 08:49:21;;;;;;;;;;;5.90;99.90;;;;;;4882309;29;19932;-86
2022/03/17 08:51:51;;;;;;;;;;;7.50;99.90;;;;;;4883993;29;19928;-86
2022/03/17 08:54:20;;;;;;;;;;;7.00;99.90;;;;;;4889892;29;19942;-87
2022/03/17 08:56:48;;;;;;;;;;;7.10;99.90;;;;;;4890936;29;19932;-85
2022/03/17 08:59:16;;;;;;;;;;;7.10;99.90;;;;;;4889997;29;20534;-86
2022/03/17 09:01:44;;;;;;;;;;;7.20;99.90;;;;;;4860046;29;19951;-86
2022/03/17 09:04:13;;;;;;;;;;;7.30;99.90;;;;;;4873745;29;19932;-85
2022/03/17 09:06:44;;;;;;;;;;;7.40;99.90;;;;;;4878874;29;19929;-86
2022/03/17 09:09:12;;;;;;;;;;;7.50;99.90;;;;;;4863791;29;20492;-85
2022/03/17 09:11:39;;;;;;;;;;;7.60;99.90;;;;;;4878118;29;19935;-84
2022/03/17 09:14:08;;;;;;;;;;;7.60;99.90;;;;;;4859662;29;19938;-85
2022/03/17 09:16:35;;;;;;;;;;;7.70;99.90;;;;;;4890981;29;19939;-87
2022/03/17 09:19:03;;;;;;;;;;;7.80;99.90;;;;;;4880817;29;19935;-84
2022/03/17 09:21:32;;;;;;;;;;;7.80;99.90;;;;;;4874085;29;19932;-89
2022/03/17 09:24:00;;;;;;;;;;;7.90;99.90;;;;;;4888776;29;19935;-89
2022/03/17 09:26:27;;;;;;;;;;;8.00;99.90;;;;;;4886844;29;19928;-87
2022/03/17 09:28:57;;;;;;;;;;;8.00;99.90;;;;;;4888477;29;20560;-87
2022/03/17 09:31:26;;;;;;;;;;;8.10;99.90;;;;;;4873250;29;19928;-87
2022/03/17 09:33:54;;;;;;;;;;;8.20;99.90;;;;;;4891173;29;19928;-85
2022/03/17 09:36:21;;;;;;;;;;;8.30;99.90;;;;;;4874743;29;19932;-87
2022/03/17 09:41:37;;;;;;;;;;;8.40;99.90;;;;;;4883889;29;19948;-87
2022/03/17 09:44:04;;;;;;;;;;;7.50;99.90;;;;;;4871857;29;19932;-87
2022/03/17 09:46:34;;;;;;;;;;;8.70;99.90;;;;;;4871757;29;19942;-88
2022/03/17 09:49:04;;;;;;;;;;;9.00;99.90;;;;;;4872089;29;19932;-87
2022/03/17 09:51:34;;;;;;;;;;;8.90;99.90;;;;;;4892223;29;19938;-86
2022/03/17 09:54:02;;;;;;;;;;;9.00;99.90;;;;;;4889310;29;19927;-87
2022/03/17 09:56:31;;;;;;;;;;;9.00;99.90;;;;;;4866849;29;19928;-88
2022/03/17 09:59:02;;;;;;;;;;;9.10;99.90;;;;;;4889371;29;19928;-87
2022/03/17 10:01:30;;;;;;;;;;;9.20;99.90;;;;;;4873756;29;19927;-87
2022/03/17 10:03:59;;;;;;;;;;;9.30;99.90;;;;;;4890385;29;19935;-87
2022/03/17 10:06:28;;;;;;;;;;;9.40;99.90;;;;;;4889608;29;19939;-86
2022/03/17 10:08:57;;;;;;;;;;;10.20;99.90;;;;;;4878999;29;19959;-86
2022/03/17 10:11:26;;;;;;;;;;;9.50;99.90;;;;;;4885718;29;19938;-87
2022/03/17 10:13:57;;;;;;;;;;;9.60;99.90;;;;;;4884450;29;19932;-88
2022/03/17 10:16:31;;;;;;;;;;;9.70;99.90;;;;;;4872308;29;19950;-86
2022/03/17 10:19:05;;;;;;;;;;;10.60;99.90;;;;;;4869968;29;19928;-86
2022/03/17 10:21:33;;;;;;;;;;;9.00;99.90;;;;;;4885830;29;20549;-86
2022/03/17 10:24:06;;;;;;;;;;;9.90;99.90;;;;;;4884486;29;20252;-87
2022/03/17 10:26:38;;;;;;;;;;;9.80;99.90;;;;;;4885566;29;19931;-87
2022/03/17 10:29:07;;;;;;;;;;;10.00;99.90;;;;;;4869093;29;20311;-87
2022/03/17 10:31:56;;;;;;;;;;;9.90;99.90;;;;;;4868102;29;19935;-88
2022/03/17 10:34:29;;;;;;;;;;;10.20;99.90;;;;;;4881241;29;19939;-86
2022/03/17 10:37:06;;;;;;;;;;;10.30;99.90;;;;;;4883569;29;19932;-87
2022/03/17 10:39:42;;;;;;;;;;;10.50;99.90;;;;;;4884997;29;19955;-87
2022/03/17 10:42:16;;;;;;;;;;;10.40;99.90;;;;;;4884467;29;19935;-87
2022/03/17 10:44:51;;;;;;;;;;;10.40;99.90;;;;;;4882117;29;19935;-88
2022/03/17 10:47:22;;;;;;;;;;;10.40;99.90;;;;;;4881009;29;19932;-87
2022/03/17 10:49:59;;;;;;;;;;;10.40;99.90;;;;;;4864907;29;19932;-87
2022/03/17 10:52:48;;;;;;;;;;;10.50;99.90;;;;;;4879935;29;20411;-87
2022/03/17 10:55:19;;;;;;;;;;;10.60;99.90;;;;;;4875713;29;19932;-87
2022/03/17 10:57:46;;;;;;;;;;;10.60;99.60;;;;;;4882119;29;19935;-87
2022/03/17 11:00:21;;;;;;;;;;;10.70;99.90;;;;;;4883008;29;19939;-87
2022/03/17 11:02:49;;;;;;;;;;;10.70;99.30;;;;;;4867107;29;20727;-88
2022/03/17 11:05:17;;;;;;;;;;;10.80;98.70;;;;;;4881281;29;19932;-87
2022/03/17 11:07:48;;;;;;;;;;;10.80;98.70;;;;;;4866231;29;19932;-89
2022/03/17 11:10:19;;;;;;;;;;;10.80;98.20;;;;;;4865910;29;19943;-88
2022/03/17 11:12:52;;;;;;;;;;;11.00;98.60;;;;;;4883163;29;20285;-88
2022/03/17 11:15:26;;;;;;;;;;;11.10;98.50;;;;;;4866040;29;19936;-88
2022/03/17 11:17:58;;;;;;;;;;;11.20;98.70;;;;;;4865923;29;19935;-87
2022/03/17 11:20:28;;;;;;;;;;;11.20;97.10;;;;;;4866475;29;20376;-87
2022/03/17 11:23:11;;;;;;;;;;;11.30;97.20;;;;;;4879798;29;19931;-87
2022/03/17 11:25:44;;;;;;;;;;;11.40;97.30;;;;;;4866091;29;19931;-88
2022/03/17 11:28:12;;;;;;;;;;;11.30;96.40;;;;;;4882380;29;19928;-87
2022/03/17 11:30:42;;;;;;;;;;;11.40;96.40;;;;;;4849698;29;19936;-88
2022/03/17 11:33:20;;;;;;;;;;;11.50;96.70;;;;;;4881579;29;19935;-87
2022/03/17 11:35:54;;;;;;;;;;;11.50;96.20;;;;;;4883720;29;19932;-89
2022/03/17 11:38:30;;;;;;;;;;;11.60;96.20;;;;;;4859657;29;19939;-88
2022/03/17 11:41:07;;;;;;;;;;;11.70;95.90;;;;;;4881357;29;19932;-88
2022/03/17 11:43:56;;;;;;;;;;;11.80;95.90;;;;;;4885898;29;19927;-88
2022/03/17 11:46:25;;;;;;;;;;;11.90;94.90;;;;;;4860277;29;19932;-89
2022/03/17 11:48:56;;;;;;;;;;;12.00;95.60;;;;;;4870439;29;19932;-88
2022/03/17 11:51:25;;;;;;;;;;;12.00;95.30;;;;;;4888047;29;19936;-88
2022/03/17 11:53:53;;;;;;;;;;;12.30;95.50;;;;;;4895439;29;19939;-88
2022/03/17 11:56:32;;;;;;;;;;;12.20;96.40;;;;;;4866349;29;19918;-88
2022/03/17 11:58:59;;;;;;;;;;;12.30;95.50;;;;;;4879433;29;19935;-88
2022/03/17 12:01:29;;;;;;;;;;;12.20;95.20;;;;;;4889720;29;20399;-87
2022/03/17 12:03:58;;;;;;;;;;;12.30;95.90;;;;;;4868906;29;19935;-88
2022/03/17 12:06:34;;;;;;;;;;;12.30;95.70;;;;;;4886619;29;19927;-89
2022/03/17 12:09:06;;;;;;;;;;;12.40;95.60;;;;;;4869944;29;19951;-87
2022/03/17 12:11:47;;;;;;;;;;;12.40;95.60;;;;;;4883207;29;19943;-90
2022/03/17 12:14:17;;;;;;;;;;;12.50;95.90;;;;;;4867778;29;19932;-87
2022/03/17 12:16:49;;;;;;;;;;;12.60;96.10;;;;;;4883905;29;19939;-87
2022/03/17 12:19:27;;;;;;;;;;;12.70;95.90;;;;;;4881440;29;19928;-87
2022/03/17 12:21:57;;;;;;;;;;;12.80;95.70;;;;;;4861643;29;19936;-85
2022/03/17 12:24:52;;;;;;;;;;;12.80;95.40;;;;;;4849923;29;19928;-86
2022/03/17 12:27:22;;;;;;;;;;;12.20;94.90;;;;;;4866450;29;19932;-86
2022/03/17 12:30:11;;;;;;;;;;;13.00;95.20;;;;;;4877535;29;20364;-86
2022/03/17 12:32:40;;;;;;;;;;;13.00;95.30;;;;;;4864236;29;19931;-86
2022/03/17 12:35:09;;;;;;;;;;;13.10;95.40;;;;;;4881700;29;19928;-85
2022/03/17 12:37:38;;;;;;;;;;;13.20;95.20;;;;;;4889936;29;19928;-86
2022/03/17 12:40:07;;;;;;;;;;;13.10;94.90;;;;;;4893234;29;19927;-88
2022/03/17 12:42:38;;;;;;;;;;;13.10;94.80;;;;;;4870267;29;19943;-86
2022/03/17 12:45:07;;;;;;;;;;;13.20;94.70;;;;;;4866473;29;20384;-85
2022/03/17 12:47:36;;;;;;;;;;;13.10;94.50;;;;;;4881591;29;19932;-85
2022/03/17 12:50:07;;;;;;;;;;;13.00;94.30;;;;;;4882817;29;19938;-87
2022/03/17 12:52:37;;;;;;;;;;;12.80;94.60;;;;;;4881244;29;19931;-84
2022/03/17 12:55:11;;;;;;;;;;;12.80;94.90;;;;;;4889505;29;19928;-85
2022/03/17 12:57:39;;;;;;;;;;;13.00;95.30;;;;;;4875218;29;19939;-85
2022/03/17 13:00:08;;;;;;;;;;;13.20;94.50;;;;;;4859002;29;19928;-85
2022/03/17 13:02:35;;;;;;;;;;;13.30;94.00;;;;;;4862839;29;19934;-86
2022/03/17 13:08:11;;;;;;;;;;;13.70;93.80;;;;;;4855826;29;19932;-86
2022/03/17 13:16:14;;;;;;;;;;;14.00;93.20;;;;;;4876934;29;19928;-85
2022/03/17 13:18:43;;;;;;;;;;;14.10;93.20;;;;;;4878900;29;19928;-85
2022/03/17 13:21:13;;;;;;;;;;;14.30;93.40;;;;;;4870529;29;20580;-85
2022/03/17 13:23:41;;;;;;;;;;;14.30;92.50;;;;;;4876654;29;19943;-86
2022/03/17 13:26:20;;;;;;;;;;;14.40;92.00;;;;;;4876845;29;19928;-85
2022/03/17 13:29:00;;;;;;;;;;;14.50;92.20;;;;;;4860478;29;19928;-86
2022/03/17 13:31:33;;;;;;;;;;;14.50;92.60;;;;;;4874962;29;19935;-84
2022/03/17 13:34:01;;;;;;;;;;;14.50;92.10;;;;;;4874679;29;19939;-86
2022/03/17 13:36:47;;;;;;;;;;;14.40;92.30;;;;;;4867833;29;19932;-86
2022/03/17 13:39:15;;;;;;;;;;;14.40;92.10;;;;;;4861462;29;19935;-85
2022/03/17 13:42:05;;;;;;;;;;;14.30;92.00;;;;;;4860487;29;19943;-85
2022/03/17 13:44:46;;;;;;;;;;;14.60;92.70;;;;;;4875151;29;19932;-84
2022/03/17 13:47:21;;;;;;;;;;;14.80;92.10;;;;;;4844208;29;19943;-84
2022/03/17 13:50:08;;;;;;;;;;;15.00;92.10;;;;;;4859689;29;19932;-86
2022/03/17 13:52:37;;;;;;;;;;;15.10;92.00;;;;;;4857034;29;19935;-86
2022/03/17 13:55:14;;;;;;;;;;;15.10;91.50;;;;;;4874839;29;20475;-86
2022/03/17 13:57:47;;;;;;;;;;;15.00;91.90;;;;;;4877023;29;19935;-85
2022/03/17 14:00:15;;;;;;;;;;;15.20;91.90;;;;;;4870150;29;19931;-86
2022/03/17 14:02:44;;;;;;;;;;;15.20;91.70;;;;;;4846840;29;19928;-86
2022/03/17 14:05:13;;;;;;;;;;;15.20;91.90;;;;;;4879777;29;19932;-85
2022/03/17 14:07:41;;;;;;;;;;;15.10;91.70;;;;;;4848723;29;19932;-87
2022/03/17 14:10:09;;;;;;;;;;;15.50;92.00;;;;;;4849906;29;19938;-85
2022/03/17 14:12:36;;;;;;;;;;;14.80;91.90;;;;;;4864878;29;19927;-86
2022/03/17 14:15:04;;;;;;;;;;;14.70;92.20;;;;;;4877526;29;19928;-85
2022/03/17 14:17:32;;;;;;;;;;;14.70;92.40;;;;;;4878466;29;19928;-86
2022/03/17 14:20:00;;;;;;;;;;;14.90;92.50;;;;;;4881172;29;19934;-86
2022/03/17 14:25:14;;;;;;;;;;;15.20;91.70;;;;;;4877938;29;19939;-86
2022/03/17 14:27:42;;;;;;;;;;;15.30;91.70;;;;;;4881577;29;19928;-86
2022/03/17 14:30:10;;;;;;;;;;;15.40;91.60;;;;;;4862833;29;20498;-89
2022/03/17 14:32:39;;;;;;;;;;;15.50;91.20;;;;;;4865344;29;19936;-89
2022/03/17 14:35:06;;;;;;;;;;;15.60;90.70;;;;;;4864541;29;19928;-89
2022/03/17 14:37:37;;;;;;;;;;;15.70;91.40;;;;;;4881526;29;19938;-89
2022/03/17 14:40:05;;;;;;;;;;;15.90;90.40;;;;;;4880050;29;20319;-88
2022/03/17 14:42:33;;;;;;;;;;;16.10;91.10;;;;;;4865638;29;19935;-88
2022/03/17 14:45:01;;;;;;;;;;;16.50;91.30;;;;;;4865885;29;20006;-89
2022/03/17 14:47:32;;;;;;;;;;;16.70;90.10;;;;;;4858709;29;19928;-90
2022/03/17 14:50:00;;;;;;;;;;;16.90;89.80;;;;;;4878298;29;19932;-89
2022/03/17 14:52:32;;;;;;;;;;;17.00;89.80;;;;;;4880848;29;19935;-90
2022/03/17 14:54:59;;;;;;;;;;;17.40;88.50;;;;;;4884759;29;19932;-89
2022/03/17 14:57:27;;;;;;;;;;;17.60;88.30;;;;;;4886380;29;20573;-88
2022/03/17 14:59:56;;;;;;;;;;;17.90;89.10;;;;;;4853306;29;19936;-90
2022/03/17 15:02:24;;;;;;;;;;;18.20;86.30;;;;;;4855745;29;19932;-90
2022/03/17 15:04:52;;;;;;;;;;;18.60;85.10;;;;;;4869925;29;19935;-89